createdAt,value
2019-01-03T00:00:15.810Z,0
2019-01-03T00:00:56.582Z,0
2019-01-03T00:01:37.333Z,0
2019-01-03T00:02:18.046Z,0
2019-01-03T00:02:58.799Z,0
2019-01-03T00:03:39.602Z,0
2019-01-03T00:04:20.406Z,0
2019-01-03T00:05:01.221Z,0
2019-01-03T00:05:41.977Z,0
2019-01-03T00:06:22.707Z,0
2019-01-03T00:07:03.443Z,0
2019-01-03T00:07:44.189Z,0
2019-01-03T00:08:24.981Z,0
2019-01-03T00:09:05.736Z,0
2019-01-03T00:09:46.463Z,0
2019-01-03T00:10:27.320Z,0
2019-01-03T00:11:08.125Z,0
2019-01-03T00:11:48.962Z,0
2019-01-03T00:12:29.687Z,0
2019-01-03T00:13:10.375Z,0
2019-01-03T00:13:51.117Z,0
2019-01-03T00:14:31.883Z,0
2019-01-03T00:15:12.632Z,0
2019-01-03T00:15:53.422Z,0
2019-01-03T00:16:34.192Z,0
2019-01-03T00:17:14.887Z,0
2019-01-03T00:17:55.694Z,0
2019-01-03T00:18:36.501Z,0
2019-01-03T00:19:17.216Z,0
2019-01-03T00:19:57.953Z,0
2019-01-03T00:20:38.673Z,0
2019-01-03T00:21:19.490Z,0
2019-01-03T00:22:00.295Z,0
2019-01-03T00:22:41.176Z,0
2019-01-03T00:23:21.975Z,0
2019-01-03T00:24:02.746Z,0
2019-01-03T00:24:43.421Z,0
2019-01-03T00:25:24.235Z,0
2019-01-03T00:26:04.985Z,0
2019-01-03T00:26:45.773Z,0
2019-01-03T00:27:26.576Z,0
2019-01-03T00:28:07.525Z,0
2019-01-03T00:28:48.324Z,0
2019-01-03T00:29:29.215Z,0
2019-01-03T00:30:09.933Z,0
2019-01-03T00:30:50.817Z,0
2019-01-03T00:31:31.716Z,0
2019-01-03T00:32:12.332Z,0
2019-01-03T00:32:53.083Z,0
2019-01-03T00:33:34.690Z,0
2019-01-03T00:34:15.497Z,0
2019-01-03T00:34:56.325Z,0
2019-01-03T00:35:37.091Z,0
2019-01-03T00:36:17.915Z,0
2019-01-03T00:36:58.676Z,0
2019-01-03T00:37:39.542Z,0
2019-01-03T00:38:20.400Z,0
2019-01-03T00:39:01.161Z,0
2019-01-03T00:39:41.903Z,0
2019-01-03T00:40:22.733Z,0
2019-01-03T00:41:03.587Z,0
2019-01-03T00:41:44.437Z,0
2019-01-03T00:42:25.217Z,0
2019-01-03T00:43:06.018Z,0
2019-01-03T00:43:46.800Z,0
2019-01-03T00:44:27.721Z,0
2019-01-03T00:45:08.466Z,0
2019-01-03T00:45:49.198Z,0
2019-01-03T00:46:29.953Z,0
2019-01-03T00:47:10.767Z,0
2019-01-03T00:47:51.624Z,0
2019-01-03T00:48:32.424Z,0
2019-01-03T00:49:13.210Z,0
2019-01-03T00:49:54.000Z,0
2019-01-03T00:50:34.896Z,0
2019-01-03T00:51:15.796Z,0
2019-01-03T00:51:56.557Z,0
2019-01-03T00:52:37.354Z,0
2019-01-03T00:53:18.155Z,0
2019-01-03T00:53:59.032Z,0
2019-01-03T00:54:39.764Z,0
2019-01-03T00:55:20.503Z,0
2019-01-03T00:56:01.297Z,0
2019-01-03T00:56:42.128Z,0
2019-01-03T00:57:23.026Z,0
2019-01-03T00:58:03.794Z,0
2019-01-03T00:58:44.585Z,0
2019-01-03T00:59:25.355Z,0
2019-01-03T01:00:06.125Z,0
2019-01-03T01:00:46.965Z,0
2019-01-03T01:01:27.779Z,0
2019-01-03T01:02:08.469Z,0
2019-01-03T01:02:49.317Z,0
2019-01-03T01:03:30.108Z,0
2019-01-03T01:04:10.887Z,0
2019-01-03T01:04:51.599Z,0
2019-01-03T01:05:32.355Z,0
2019-01-03T01:06:13.234Z,0
2019-01-03T01:06:53.985Z,0
2019-01-03T01:07:34.731Z,0
2019-01-03T01:08:15.466Z,0
2019-01-03T01:08:56.214Z,0
2019-01-03T01:09:36.990Z,0
2019-01-03T01:10:17.735Z,0
2019-01-03T01:10:58.450Z,0
2019-01-03T01:11:39.280Z,0
2019-01-03T01:12:20.094Z,0
2019-01-03T01:13:00.878Z,0
2019-01-03T01:13:41.646Z,0
2019-01-03T01:14:22.396Z,0
2019-01-03T01:15:03.155Z,0
2019-01-03T01:15:44.006Z,0
2019-01-03T01:16:24.809Z,0
2019-01-03T01:17:05.646Z,0
2019-01-03T01:17:46.361Z,0
2019-01-03T01:18:27.109Z,0
2019-01-03T01:19:07.967Z,0
2019-01-03T01:19:48.793Z,0
2019-01-03T01:20:30.229Z,0
2019-01-03T01:21:10.288Z,0
2019-01-03T01:21:51.086Z,0
2019-01-03T01:22:31.913Z,0
2019-01-03T01:23:12.705Z,0
2019-01-03T01:23:53.514Z,0
2019-01-03T01:24:34.324Z,0
2019-01-03T01:25:15.082Z,0
2019-01-03T01:25:55.800Z,0
2019-01-03T01:26:36.621Z,0
2019-01-03T01:27:17.361Z,0
2019-01-03T01:27:58.183Z,0
2019-01-03T01:28:38.973Z,0
2019-01-03T01:29:19.922Z,0
2019-01-03T01:30:00.856Z,0
2019-01-03T01:30:41.597Z,0
2019-01-03T01:31:22.282Z,0
2019-01-03T01:32:03.022Z,0
2019-01-03T01:32:43.741Z,0
2019-01-03T01:33:24.566Z,0
2019-01-03T01:34:05.383Z,0
2019-01-03T01:34:46.180Z,0
2019-01-03T01:35:26.991Z,0
2019-01-03T01:36:07.760Z,0
2019-01-03T01:36:48.687Z,0
2019-01-03T01:37:29.406Z,0
2019-01-03T01:38:10.158Z,0
2019-01-03T01:42:15.635Z,0
2019-01-03T01:42:56.438Z,0
2019-01-03T01:43:37.223Z,0
2019-01-03T01:44:18.033Z,0
2019-01-03T01:44:58.829Z,0
2019-01-03T01:45:39.726Z,0
2019-01-03T01:46:20.494Z,0
2019-01-03T01:47:01.272Z,0
2019-01-03T01:47:42.056Z,0
2019-01-03T01:48:22.884Z,0
2019-01-03T01:49:03.682Z,0
2019-01-03T01:49:44.413Z,0
2019-01-03T01:50:25.172Z,0
2019-01-03T01:51:06.033Z,0
2019-01-03T01:51:47.334Z,0
2019-01-03T01:52:28.089Z,0
2019-01-03T01:53:08.792Z,0
2019-01-03T01:53:49.526Z,0
2019-01-03T01:54:30.312Z,0
2019-01-03T01:55:11.124Z,0
2019-01-03T01:55:51.892Z,0
2019-01-03T01:56:32.706Z,0
2019-01-03T01:57:13.456Z,0
2019-01-03T01:57:54.194Z,0
2019-01-03T01:58:34.994Z,0
2019-01-03T01:59:15.750Z,0
2019-01-03T01:59:56.438Z,0
2019-01-03T02:00:37.165Z,0
2019-01-03T02:01:17.938Z,0
2019-01-03T02:01:58.774Z,0
2019-01-03T02:02:39.605Z,0
2019-01-03T02:03:20.329Z,0
2019-01-03T02:04:01.205Z,0
2019-01-03T02:04:42.028Z,0
2019-01-03T02:05:22.842Z,0
2019-01-03T02:06:03.717Z,0
2019-01-03T02:06:44.467Z,0
2019-01-03T02:07:25.237Z,0
2019-01-03T02:08:05.942Z,0
2019-01-03T02:08:46.705Z,0
2019-01-03T02:09:27.427Z,0
2019-01-03T02:10:08.216Z,0
2019-01-03T02:10:49.258Z,0
2019-01-03T02:11:30.202Z,0
2019-01-03T02:12:10.980Z,0
2019-01-03T02:12:51.776Z,0
2019-01-03T02:13:32.638Z,0
2019-01-03T02:14:13.454Z,0
2019-01-03T02:14:54.306Z,0
2019-01-03T02:15:35.149Z,0
2019-01-03T02:16:15.941Z,0
2019-01-03T02:16:56.594Z,0
2019-01-03T02:17:37.375Z,0
2019-01-03T02:18:18.177Z,0
2019-01-03T02:18:58.906Z,0
2019-01-03T02:19:39.616Z,0
2019-01-03T02:20:20.459Z,0
2019-01-03T02:21:01.338Z,0
2019-01-03T02:21:42.096Z,0
2019-01-03T02:22:22.953Z,0
2019-01-03T02:23:03.652Z,0
2019-01-03T02:23:44.632Z,0
2019-01-03T02:24:25.411Z,0
2019-01-03T02:25:06.316Z,0
2019-01-03T02:25:47.183Z,0
2019-01-03T02:26:27.920Z,0
2019-01-03T02:27:08.788Z,0
2019-01-03T02:27:49.564Z,0
2019-01-03T02:28:30.327Z,0
2019-01-03T02:29:11.214Z,0
2019-01-03T02:29:51.957Z,0
2019-01-03T02:30:32.820Z,0
2019-01-03T02:31:13.566Z,0
2019-01-03T02:31:54.265Z,0
2019-01-03T02:32:35.004Z,0
2019-01-03T02:33:15.772Z,0
2019-01-03T02:33:56.624Z,0
2019-01-03T02:34:37.635Z,0
2019-01-03T02:35:18.446Z,0
2019-01-03T02:35:59.232Z,0
2019-01-03T02:36:40.064Z,0
2019-01-03T02:37:20.838Z,0
2019-01-03T02:38:01.588Z,0
2019-01-03T02:38:42.377Z,0
2019-01-03T02:39:23.178Z,0
2019-01-03T02:40:04.074Z,0
2019-01-03T02:40:44.937Z,0
2019-01-03T02:41:25.786Z,0
2019-01-03T02:42:06.537Z,0
2019-01-03T02:42:47.359Z,0
2019-01-03T02:43:28.047Z,0
2019-01-03T02:44:08.941Z,0
2019-01-03T02:44:49.841Z,0
2019-01-03T02:45:30.535Z,0
2019-01-03T02:46:11.348Z,0
2019-01-03T02:46:52.127Z,0
2019-01-03T02:47:32.911Z,0
2019-01-03T02:48:13.689Z,0
2019-01-03T02:48:54.415Z,0
2019-01-03T02:49:35.355Z,0
2019-01-03T02:50:16.104Z,0
2019-01-03T02:50:56.876Z,0
2019-01-03T02:51:37.671Z,0
2019-01-03T02:52:18.470Z,0
2019-01-03T02:52:59.163Z,0
2019-01-03T02:53:39.958Z,0
2019-01-03T02:54:20.774Z,0
2019-01-03T02:55:01.510Z,0
2019-01-03T02:55:42.245Z,0
2019-01-03T02:56:23.089Z,0
2019-01-03T02:57:03.954Z,0
2019-01-03T02:57:44.732Z,0
2019-01-03T02:58:25.452Z,0
2019-01-03T02:59:06.210Z,0
2019-01-03T02:59:47.026Z,0
2019-01-03T03:00:27.905Z,0
2019-01-03T03:01:08.660Z,0
2019-01-03T03:01:49.355Z,0
2019-01-03T03:02:30.152Z,0
2019-01-03T03:03:10.962Z,0
2019-01-03T03:03:51.671Z,0
2019-01-03T03:04:32.385Z,0
2019-01-03T03:05:13.102Z,0
2019-01-03T03:05:53.922Z,0
2019-01-03T03:06:34.685Z,0
2019-01-03T03:07:15.570Z,0
2019-01-03T03:07:56.291Z,0
2019-01-03T03:08:37.009Z,0
2019-01-03T03:09:17.788Z,0
2019-01-03T03:09:58.512Z,0
2019-01-03T03:10:39.365Z,0
2019-01-03T03:11:20.075Z,0
2019-01-03T03:12:00.843Z,0
2019-01-03T03:12:41.643Z,0
2019-01-03T03:13:22.441Z,0
2019-01-03T03:14:03.244Z,0
2019-01-03T03:14:43.962Z,0
2019-01-03T03:15:24.668Z,0
2019-01-03T03:16:05.413Z,0
2019-01-03T03:16:46.244Z,0
2019-01-03T03:17:27.019Z,0
2019-01-03T03:18:07.817Z,0
2019-01-03T03:18:48.608Z,0
2019-01-03T03:19:29.302Z,0
2019-01-03T03:20:10.137Z,0
2019-01-03T03:20:50.851Z,0
2019-01-03T03:21:31.603Z,0
2019-01-03T03:22:12.303Z,0
2019-01-03T03:22:53.054Z,0
2019-01-03T03:23:33.888Z,0
2019-01-03T03:24:14.708Z,0
2019-01-03T03:24:55.449Z,0
2019-01-03T03:25:36.157Z,0
2019-01-03T03:26:16.864Z,0
2019-01-03T03:26:57.585Z,0
2019-01-03T03:27:38.405Z,0
2019-01-03T03:28:19.128Z,0
2019-01-03T03:28:59.949Z,0
2019-01-03T03:29:40.676Z,0
2019-01-03T03:30:21.453Z,0
2019-01-03T03:31:02.315Z,0
2019-01-03T03:31:43.067Z,0
2019-01-03T03:32:23.845Z,0
2019-01-03T03:33:04.600Z,0
2019-01-03T03:33:45.353Z,0
2019-01-03T03:34:26.039Z,0
2019-01-03T03:35:06.759Z,0
2019-01-03T03:35:47.490Z,0
2019-01-03T03:36:28.288Z,0
2019-01-03T03:37:09.027Z,0
2019-01-03T03:37:49.721Z,0
2019-01-03T03:38:30.513Z,0
2019-01-03T03:39:11.281Z,0
2019-01-03T03:39:52.079Z,0
2019-01-03T03:40:32.787Z,0
2019-01-03T03:41:13.533Z,0
2019-01-03T03:41:54.245Z,0
2019-01-03T03:42:34.963Z,0
2019-01-03T03:43:15.766Z,0
2019-01-03T03:43:56.563Z,0
2019-01-03T03:44:37.295Z,0
2019-01-03T03:45:17.979Z,0
2019-01-03T03:45:58.718Z,0
2019-01-03T03:46:39.485Z,0
2019-01-03T03:47:20.235Z,0
2019-01-03T03:48:00.930Z,0
2019-01-03T03:48:41.664Z,0
2019-01-03T03:49:22.489Z,0
2019-01-03T03:50:03.243Z,0
2019-01-03T03:50:43.914Z,0
2019-01-03T03:51:24.694Z,0
2019-01-03T03:52:05.426Z,0
2019-01-03T03:52:46.241Z,0
2019-01-03T03:53:26.981Z,0
2019-01-03T03:54:07.686Z,0
2019-01-03T03:54:48.487Z,0
2019-01-03T03:55:29.244Z,0
2019-01-03T03:56:09.983Z,0
2019-01-03T03:56:50.703Z,0
2019-01-03T03:57:31.413Z,0
2019-01-03T03:58:12.211Z,0
2019-01-03T03:58:53.012Z,0
2019-01-03T03:59:33.746Z,0
2019-01-03T04:00:14.489Z,0
2019-01-03T04:00:55.176Z,0
2019-01-03T04:01:35.890Z,0
2019-01-03T04:02:16.763Z,0
2019-01-03T04:02:57.588Z,0
2019-01-03T04:03:38.276Z,0
2019-01-03T04:04:19.058Z,0
2019-01-03T04:04:59.775Z,0
2019-01-03T04:05:40.606Z,0
2019-01-03T04:06:21.380Z,0
2019-01-03T04:07:02.068Z,0
2019-01-03T04:07:42.866Z,0
2019-01-03T04:08:23.627Z,0
2019-01-03T04:09:04.328Z,0
2019-01-03T04:09:45.009Z,0
2019-01-03T04:10:25.740Z,0
2019-01-03T04:11:06.551Z,0
2019-01-03T04:11:47.308Z,0
2019-01-03T04:12:27.994Z,0
2019-01-03T04:13:08.779Z,0
2019-01-03T04:13:49.575Z,0
2019-01-03T04:14:30.399Z,0
2019-01-03T04:15:11.127Z,0
2019-01-03T04:15:51.816Z,0
2019-01-03T04:16:32.491Z,0
2019-01-03T04:17:13.286Z,0
2019-01-03T04:17:54.029Z,0
2019-01-03T04:18:34.834Z,0
2019-01-03T04:19:15.601Z,0
2019-01-03T04:19:56.367Z,0
2019-01-03T04:20:37.114Z,0
2019-01-03T04:21:17.873Z,0
2019-01-03T04:21:58.595Z,0
2019-01-03T04:22:39.318Z,0
2019-01-03T04:23:20.035Z,0
2019-01-03T04:24:00.816Z,0
2019-01-03T04:24:41.625Z,0
2019-01-03T04:25:22.427Z,0
2019-01-03T04:26:03.150Z,0
2019-01-03T04:26:43.849Z,0
2019-01-03T04:27:24.529Z,0
2019-01-03T04:28:05.253Z,0
2019-01-03T04:28:46.067Z,0
2019-01-03T04:29:26.790Z,0
2019-01-03T04:30:07.525Z,0
2019-01-03T04:30:48.300Z,0
2019-01-03T04:31:29.144Z,0
2019-01-03T04:32:09.912Z,0
2019-01-03T04:32:50.637Z,0
2019-01-03T04:33:31.338Z,0
2019-01-03T04:34:12.048Z,0
2019-01-03T04:34:52.844Z,0
2019-01-03T04:35:33.583Z,0
2019-01-03T04:36:14.384Z,0
2019-01-03T04:36:55.136Z,0
2019-01-03T04:37:35.851Z,0
2019-01-03T04:38:16.645Z,0
2019-01-03T04:38:57.392Z,0
2019-01-03T04:39:38.103Z,0
2019-01-03T04:40:18.836Z,0
2019-01-03T04:40:59.532Z,0
2019-01-03T04:41:40.364Z,0
2019-01-03T04:42:21.157Z,0
2019-01-03T04:43:01.913Z,0
2019-01-03T04:43:42.701Z,0
2019-01-03T04:44:23.514Z,0
2019-01-03T04:45:04.279Z,0
2019-01-03T04:45:45.027Z,0
2019-01-03T04:46:25.809Z,0
2019-01-03T04:47:06.637Z,0
2019-01-03T04:47:47.395Z,0
2019-01-03T04:48:28.100Z,0
2019-01-03T04:49:08.854Z,0
2019-01-03T04:49:49.598Z,0
2019-01-03T04:50:30.408Z,0
2019-01-03T04:51:11.208Z,0
2019-01-03T04:51:51.993Z,0
2019-01-03T04:52:32.676Z,0
2019-01-03T04:53:13.366Z,0
2019-01-03T04:53:54.061Z,0
2019-01-03T04:54:34.847Z,0
2019-01-03T04:55:15.617Z,0
2019-01-03T04:55:56.340Z,0
2019-01-03T04:56:37.158Z,0
2019-01-03T04:57:17.942Z,0
2019-01-03T04:57:58.728Z,0
2019-01-03T04:58:39.450Z,0
2019-01-03T04:59:20.205Z,0
2019-01-03T05:00:00.932Z,0
2019-01-03T05:00:41.666Z,0
2019-01-03T05:01:22.520Z,0
2019-01-03T05:02:03.281Z,0
2019-01-03T05:02:44.089Z,0
2019-01-03T05:03:24.810Z,0
2019-01-03T05:04:05.619Z,0
2019-01-03T05:04:46.452Z,0
2019-01-03T05:05:27.203Z,0
2019-01-03T05:06:07.913Z,0
2019-01-03T05:06:48.618Z,0
2019-01-03T05:07:29.364Z,0
2019-01-03T05:08:10.153Z,0
2019-01-03T05:08:50.963Z,0
2019-01-03T05:09:31.697Z,0
2019-01-03T05:10:12.421Z,0
2019-01-03T05:10:53.177Z,0
2019-01-03T05:11:33.918Z,0
2019-01-03T05:12:14.729Z,0
2019-01-03T05:12:55.476Z,0
2019-01-03T05:13:36.155Z,0
2019-01-03T05:14:16.978Z,0
2019-01-03T05:14:57.783Z,0
2019-01-03T05:15:38.608Z,0
2019-01-03T05:16:19.322Z,0
2019-01-03T05:17:00.063Z,0
2019-01-03T05:17:40.856Z,0
2019-01-03T05:18:21.559Z,0
2019-01-03T05:19:02.262Z,0
2019-01-03T05:19:42.953Z,0
2019-01-03T05:20:23.679Z,0
2019-01-03T05:21:04.486Z,0
2019-01-03T05:21:45.215Z,0
2019-01-03T05:22:25.999Z,0
2019-01-03T05:23:06.911Z,0
2019-01-03T05:23:47.730Z,0
2019-01-03T05:24:28.476Z,0
2019-01-03T05:25:09.187Z,0
2019-01-03T05:25:49.906Z,0
2019-01-03T05:26:30.604Z,0
2019-01-03T05:27:11.387Z,0
2019-01-03T05:27:52.241Z,0
2019-01-03T05:28:33.048Z,0
2019-01-03T05:29:13.741Z,0
2019-01-03T05:29:54.487Z,0
2019-01-03T05:30:35.331Z,0
2019-01-03T05:31:16.084Z,0
2019-01-03T05:31:56.787Z,0
2019-01-03T05:32:37.533Z,0
2019-01-03T05:33:18.246Z,0
2019-01-03T05:33:59.074Z,0
2019-01-03T05:34:39.813Z,0
2019-01-03T05:35:20.590Z,0
2019-01-03T05:36:01.287Z,0
2019-01-03T05:36:42.005Z,0
2019-01-03T05:37:22.706Z,0
2019-01-03T05:38:03.439Z,0
2019-01-03T05:38:44.198Z,0
2019-01-03T05:39:24.949Z,0
2019-01-03T05:40:05.725Z,0
2019-01-03T05:40:46.573Z,0
2019-01-03T05:41:27.428Z,0
2019-01-03T05:42:08.218Z,0
2019-01-03T05:42:48.955Z,0
2019-01-03T05:43:29.666Z,0
2019-01-03T05:44:10.365Z,0
2019-01-03T05:44:51.188Z,0
2019-01-03T05:45:31.925Z,0
2019-01-03T05:46:12.731Z,0
2019-01-03T05:46:53.506Z,0
2019-01-03T05:47:34.234Z,0
2019-01-03T05:48:15.093Z,0
2019-01-03T05:48:55.794Z,0
2019-01-03T05:49:36.513Z,0
2019-01-03T05:50:17.283Z,0
2019-01-03T05:50:58.016Z,0
2019-01-03T05:51:38.828Z,0
2019-01-03T05:52:19.556Z,0
2019-01-03T05:53:00.324Z,0
2019-01-03T05:53:41.105Z,0
2019-01-03T05:54:21.860Z,0
2019-01-03T05:55:02.696Z,0
2019-01-03T05:55:43.408Z,0
2019-01-03T05:56:24.182Z,0
2019-01-03T05:57:04.948Z,0
2019-01-03T05:57:45.641Z,0
2019-01-03T05:58:26.346Z,0
2019-01-03T05:59:07.120Z,0
2019-01-03T05:59:47.846Z,0
2019-01-03T06:00:28.690Z,0
2019-01-03T06:01:09.491Z,0
2019-01-03T06:01:50.181Z,0
2019-01-03T06:02:30.951Z,0
2019-01-03T06:03:11.670Z,0
2019-01-03T06:03:52.425Z,0
2019-01-03T06:04:33.213Z,0
2019-01-03T06:05:13.921Z,0
2019-01-03T06:05:54.659Z,0
2019-01-03T06:06:35.465Z,0
2019-01-03T06:07:16.212Z,0
2019-01-03T06:07:57.027Z,0
2019-01-03T06:08:37.735Z,0
2019-01-03T06:09:18.502Z,0
2019-01-03T06:09:59.283Z,0
2019-01-03T06:10:39.985Z,0
2019-01-03T06:11:20.718Z,0
2019-01-03T06:12:01.426Z,0
2019-01-03T06:12:42.181Z,0
2019-01-03T06:13:23.014Z,0
2019-01-03T06:14:03.713Z,0
2019-01-03T06:14:44.447Z,0
2019-01-03T06:15:25.206Z,0
2019-01-03T06:16:05.990Z,0
2019-01-03T06:16:46.807Z,0
2019-01-03T06:17:27.541Z,0
2019-01-03T06:18:08.249Z,0
2019-01-03T06:18:48.977Z,0
2019-01-03T06:19:29.716Z,0
2019-01-03T06:20:10.531Z,0
2019-01-03T06:20:51.301Z,0
2019-01-03T06:21:32.045Z,0
2019-01-03T06:22:12.793Z,0
2019-01-03T06:22:53.566Z,0
2019-01-03T06:23:34.317Z,0
2019-01-03T06:24:15.096Z,0
2019-01-03T06:24:55.874Z,0
2019-01-03T06:25:36.605Z,0
2019-01-03T06:26:17.404Z,0
2019-01-03T06:26:58.144Z,0
2019-01-03T06:27:38.894Z,0
2019-01-03T06:28:19.671Z,0
2019-01-03T06:29:00.510Z,0
2019-01-03T06:29:41.304Z,0
2019-01-03T06:30:22.051Z,0
2019-01-03T06:31:02.785Z,0
2019-01-03T06:31:43.568Z,0
2019-01-03T06:32:24.292Z,0
2019-01-03T06:33:04.973Z,0
2019-01-03T06:33:45.689Z,0
2019-01-03T06:34:26.435Z,0
2019-01-03T06:35:07.288Z,0
2019-01-03T06:35:48.093Z,0
2019-01-03T06:36:28.896Z,0
2019-01-03T06:37:09.524Z,0
2019-01-03T06:37:50.223Z,0
2019-01-03T06:38:30.956Z,0
2019-01-03T06:39:11.682Z,0
2019-01-03T06:39:52.426Z,0
2019-01-03T06:40:33.143Z,0
2019-01-03T06:41:13.909Z,0
2019-01-03T06:41:54.744Z,0
2019-01-03T06:42:35.565Z,0
2019-01-03T06:43:16.310Z,0
2019-01-03T06:43:57.057Z,0
2019-01-03T06:44:37.753Z,0
2019-01-03T06:45:18.480Z,0
2019-01-03T06:45:59.282Z,0
2019-01-03T06:46:40.031Z,0
2019-01-03T06:47:20.777Z,0
2019-01-03T06:48:01.485Z,0
2019-01-03T06:48:42.239Z,0
2019-01-03T06:49:23.038Z,0
2019-01-03T06:50:03.775Z,0
2019-01-03T06:50:44.472Z,0
2019-01-03T06:51:25.180Z,0
2019-01-03T06:52:05.931Z,0
2019-01-03T06:52:46.703Z,0
2019-01-03T06:53:27.445Z,0
2019-01-03T06:54:08.209Z,0
2019-01-03T06:54:48.942Z,0
2019-01-03T06:55:29.621Z,0
2019-01-03T06:56:10.384Z,0
2019-01-03T06:56:51.170Z,0
2019-01-03T06:57:31.869Z,0
2019-01-03T06:58:12.661Z,0
2019-01-03T06:58:53.449Z,0
2019-01-03T06:59:34.199Z,0
2019-01-03T07:00:14.997Z,0
2019-01-03T07:00:55.732Z,0
2019-01-03T07:01:36.450Z,0
2019-01-03T07:02:17.282Z,0
2019-01-03T07:02:58.010Z,0
2019-01-03T07:03:38.707Z,0
2019-01-03T07:04:19.423Z,0
2019-01-03T07:05:00.221Z,0
2019-01-03T07:05:40.956Z,0
2019-01-03T07:06:21.658Z,4
2019-01-03T07:07:02.396Z,4
2019-01-03T07:07:43.206Z,0
2019-01-03T07:08:23.979Z,0
2019-01-03T07:09:04.750Z,0
2019-01-03T07:09:45.479Z,0
2019-01-03T07:10:26.175Z,0
2019-01-03T07:11:06.901Z,4
2019-01-03T07:11:47.658Z,4
2019-01-03T07:12:28.502Z,4
2019-01-03T07:13:09.353Z,0
2019-01-03T07:13:50.113Z,0
2019-01-03T07:14:30.905Z,4
2019-01-03T07:15:11.695Z,4
2019-01-03T07:15:52.450Z,4
2019-01-03T07:16:33.132Z,4
2019-01-03T07:17:13.817Z,4
2019-01-03T07:17:54.585Z,4
2019-01-03T07:18:35.448Z,4
2019-01-03T07:19:16.261Z,4
2019-01-03T07:19:57.005Z,4
2019-01-03T07:20:37.701Z,8
2019-01-03T07:21:18.404Z,8
2019-01-03T07:21:59.228Z,4
2019-01-03T07:22:40.003Z,4
2019-01-03T07:23:20.777Z,8
2019-01-03T07:24:01.497Z,8
2019-01-03T07:24:42.290Z,8
2019-01-03T07:25:23.120Z,12
2019-01-03T07:26:04.044Z,8
2019-01-03T07:26:44.756Z,8
2019-01-03T07:27:25.488Z,8
2019-01-03T07:28:06.179Z,12
2019-01-03T07:28:47.025Z,12
2019-01-03T07:29:27.784Z,12
2019-01-03T07:30:08.585Z,12
2019-01-03T07:30:49.311Z,12
2019-01-03T07:31:30.061Z,12
2019-01-03T07:32:10.845Z,16
2019-01-03T07:32:51.611Z,12
2019-01-03T07:33:32.334Z,16
2019-01-03T07:34:13.009Z,16
2019-01-03T07:34:53.768Z,16
2019-01-03T07:35:34.544Z,16
2019-01-03T07:36:15.290Z,16
2019-01-03T07:36:56.062Z,20
2019-01-03T07:37:36.853Z,16
2019-01-03T07:38:17.636Z,20
2019-01-03T07:38:58.439Z,20
2019-01-03T07:39:39.213Z,20
2019-01-03T07:40:19.914Z,24
2019-01-03T07:41:00.755Z,24
2019-01-03T07:43:16.318Z,28
2019-01-03T07:43:57.017Z,28
2019-01-03T07:44:37.700Z,28
2019-01-03T07:45:18.427Z,32
2019-01-03T07:45:59.257Z,32
2019-01-03T07:46:39.999Z,32
2019-01-03T07:47:20.731Z,32
2019-01-03T07:48:01.559Z,32
2019-01-03T07:48:42.281Z,36
2019-01-03T07:49:23.086Z,36
2019-01-03T07:50:03.777Z,36
2019-01-03T07:50:44.522Z,40
2019-01-03T07:51:25.282Z,36
2019-01-03T07:52:05.990Z,36
2019-01-03T07:52:46.807Z,36
2019-01-03T07:53:27.667Z,40
2019-01-03T07:54:08.447Z,40
2019-01-03T07:54:49.130Z,40
2019-01-03T07:55:29.905Z,40
2019-01-03T07:56:10.672Z,40
2019-01-03T07:56:51.390Z,48
2019-01-03T07:57:32.122Z,48
2019-01-03T07:58:12.846Z,48
2019-01-03T07:58:53.648Z,48
2019-01-03T07:59:35.327Z,48
2019-01-03T08:00:15.230Z,52
2019-01-03T08:00:55.966Z,52
2019-01-03T08:01:36.684Z,52
2019-01-03T08:02:17.406Z,52
2019-01-03T08:02:58.138Z,52
2019-01-03T08:03:39.002Z,52
2019-01-03T08:04:19.722Z,52
2019-01-03T08:05:00.427Z,52
2019-01-03T08:05:41.222Z,52
2019-01-03T08:06:22.007Z,56
2019-01-03T08:07:02.791Z,56
2019-01-03T08:07:43.473Z,52
2019-01-03T08:08:24.185Z,56
2019-01-03T08:09:04.984Z,56
2019-01-03T08:09:45.828Z,56
2019-01-03T08:10:26.627Z,56
2019-01-03T08:11:07.451Z,56
2019-01-03T08:11:48.177Z,56
2019-01-03T08:12:28.898Z,60
2019-01-03T08:13:09.709Z,60
2019-01-03T08:13:50.449Z,60
2019-01-03T08:14:31.183Z,60
2019-01-03T08:15:11.883Z,60
2019-01-03T08:15:52.628Z,64
2019-01-03T08:16:33.478Z,60
2019-01-03T08:17:14.248Z,60
2019-01-03T08:17:54.963Z,64
2019-01-03T08:18:35.800Z,64
2019-01-03T08:19:16.595Z,64
2019-01-03T08:19:57.366Z,64
2019-01-03T08:20:38.075Z,64
2019-01-03T08:21:18.832Z,64
2019-01-03T08:21:59.665Z,68
2019-01-03T08:22:40.399Z,68
2019-01-03T08:23:21.122Z,68
2019-01-03T08:24:01.847Z,68
2019-01-03T08:24:42.608Z,68
2019-01-03T08:25:23.391Z,68
2019-01-03T08:26:04.177Z,72
2019-01-03T08:26:44.912Z,72
2019-01-03T08:27:25.622Z,72
2019-01-03T08:28:06.318Z,76
2019-01-03T08:28:47.057Z,76
2019-01-03T08:29:27.904Z,72
2019-01-03T08:30:08.690Z,76
2019-01-03T08:30:49.389Z,76
2019-01-03T08:31:30.176Z,76
2019-01-03T08:32:10.925Z,80
2019-01-03T08:32:51.710Z,80
2019-01-03T08:33:32.440Z,80
2019-01-03T08:34:13.200Z,84
2019-01-03T08:34:53.930Z,84
2019-01-03T08:35:34.699Z,80
2019-01-03T08:36:15.448Z,84
2019-01-03T08:36:56.258Z,88
2019-01-03T08:37:36.989Z,84
2019-01-03T08:38:17.698Z,88
2019-01-03T08:38:58.515Z,92
2019-01-03T08:39:39.285Z,92
2019-01-03T08:40:19.969Z,92
2019-01-03T08:41:00.697Z,92
2019-01-03T08:41:48.125Z,96
2019-01-03T08:42:28.898Z,96
2019-01-03T08:43:09.703Z,96
2019-01-03T08:43:50.501Z,96
2019-01-03T08:44:31.274Z,100
2019-01-03T08:45:12.020Z,100
2019-01-03T08:45:52.746Z,100
2019-01-03T08:46:33.536Z,100
2019-01-03T08:47:14.259Z,104
2019-01-03T08:47:55.142Z,104
2019-01-03T08:48:35.869Z,104
2019-01-03T08:49:16.666Z,104
2019-01-03T08:49:57.490Z,96
2019-01-03T08:50:38.277Z,104
2019-01-03T08:51:18.997Z,112
2019-01-03T08:51:59.805Z,112
2019-01-03T08:52:40.541Z,112
2019-01-03T08:53:21.617Z,112
2019-01-03T08:54:02.417Z,116
2019-01-03T08:54:43.159Z,116
2019-01-03T08:55:23.948Z,120
2019-01-03T08:56:04.738Z,120
2019-01-03T08:56:45.499Z,124
2019-01-03T08:57:26.249Z,128
2019-01-03T08:58:06.979Z,128
2019-01-03T08:58:47.784Z,132
2019-01-03T08:59:28.518Z,136
2019-01-03T09:00:09.195Z,136
2019-01-03T09:00:49.931Z,144
2019-01-03T09:01:30.688Z,148
2019-01-03T09:02:11.502Z,152
2019-01-03T09:02:52.321Z,148
2019-01-03T09:03:33.276Z,148
2019-01-03T09:04:14.011Z,136
2019-01-03T09:04:54.744Z,120
2019-01-03T09:05:35.550Z,152
2019-01-03T09:06:16.301Z,148
2019-01-03T09:06:57.275Z,120
2019-01-03T09:07:38.003Z,120
2019-01-03T09:08:18.801Z,136
2019-01-03T09:08:59.642Z,136
2019-01-03T09:09:40.427Z,148
2019-01-03T09:10:21.147Z,152
2019-01-03T09:11:01.864Z,120
2019-01-03T09:11:42.621Z,148
2019-01-03T09:12:23.377Z,148
2019-01-03T09:13:04.188Z,120
2019-01-03T09:13:44.948Z,116
2019-01-03T09:14:25.673Z,108
2019-01-03T09:15:06.518Z,104
2019-01-03T09:15:47.237Z,108
2019-01-03T09:16:28.050Z,108
2019-01-03T09:17:08.821Z,112
2019-01-03T09:17:49.617Z,108
2019-01-03T09:18:30.339Z,108
2019-01-03T09:19:11.161Z,112
2019-01-03T09:19:51.913Z,112
2019-01-03T09:20:32.684Z,116
2019-01-03T09:21:13.460Z,116
2019-01-03T09:21:54.189Z,120
2019-01-03T09:22:34.966Z,120
2019-01-03T09:23:15.807Z,116
2019-01-03T09:23:56.584Z,112
2019-01-03T09:24:37.310Z,112
2019-01-03T09:25:18.033Z,108
2019-01-03T09:25:58.826Z,112
2019-01-03T09:26:39.578Z,108
2019-01-03T09:27:20.284Z,108
2019-01-03T09:28:01.089Z,104
2019-01-03T09:28:41.868Z,104
2019-01-03T09:29:22.630Z,104
2019-01-03T09:30:03.391Z,108
2019-01-03T09:30:44.140Z,112
2019-01-03T09:31:24.970Z,112
2019-01-03T09:32:05.726Z,116
2019-01-03T09:32:46.463Z,120
2019-01-03T09:33:27.133Z,124
2019-01-03T09:34:07.872Z,124
2019-01-03T09:34:48.740Z,128
2019-01-03T09:35:29.524Z,140
2019-01-03T09:36:10.321Z,152
2019-01-03T09:36:51.035Z,156
2019-01-03T09:37:31.802Z,152
2019-01-03T09:38:12.522Z,144
2019-01-03T09:38:53.422Z,152
2019-01-03T09:39:34.153Z,140
2019-01-03T09:40:14.864Z,140
2019-01-03T09:40:55.663Z,156
2019-01-03T09:41:36.405Z,136
2019-01-03T09:42:17.233Z,136
2019-01-03T09:42:58.018Z,140
2019-01-03T09:43:38.712Z,156
2019-01-03T09:44:19.562Z,260
2019-01-03T09:45:00.375Z,176
2019-01-03T09:45:44.327Z,180
2019-01-03T09:46:21.782Z,184
2019-01-03T09:47:02.514Z,216
2019-01-03T09:47:43.353Z,156
2019-01-03T09:48:24.114Z,144
2019-01-03T09:49:04.815Z,200
2019-01-03T09:49:45.632Z,224
2019-01-03T09:50:26.459Z,140
2019-01-03T09:51:07.283Z,252
2019-01-03T09:51:48.061Z,272
2019-01-03T09:52:28.876Z,276
2019-01-03T09:53:09.497Z,140
2019-01-03T09:53:50.252Z,152
2019-01-03T09:54:31.060Z,136
2019-01-03T09:55:11.868Z,144
2019-01-03T09:55:52.737Z,152
2019-01-03T09:56:33.432Z,184
2019-01-03T09:57:14.285Z,272
2019-01-03T09:57:55.107Z,276
2019-01-03T09:58:35.891Z,284
2019-01-03T09:59:16.636Z,272